Latest Coastal Weather Observations for Kiama

IDN60701

Issued at 5:42 am EDT Sunday 21 December 2014 (issued every 10 minutes, with the page automatically refreshed every 10 minutes)

About coastal observations | Map of coastal stations | Coastal observations for NSW | Marine services | Other Formats
Station Details ID: 068242 Name: KIAMA (BOMBO HEADLAND) Lat: -34.65 Lon: 150.86 Height: 15.5 m
Data from the previous 72 hours. | See also: Recent months at Kiama
Date/Time
EDT
Temp

°C
Wind Pressure Rain
since 9am
mm
Weather Cloud Vis
km
Sea
Height
m
Swell
Dir
 
Speed
knots
Gust
knots
hPa Trend Height
m
Period
s
Dir
21/05:30am 17.1 WNW 5 6 - - 0.0 - - - - - - -
21/05:00am 17.3 WNW 5 6 - - 0.0 - - - - - - -
21/04:30am 17.2 NW 6 7 - - 0.0 - - - - - - -
21/04:00am 17.1 NW 5 6 - - 0.0 - - - - - - -
21/03:30am 17.2 NW 5 6 - - 0.0 - - - - - - -
21/03:00am 17.5 NW 1 3 - - 0.0 - - - - - - -
21/02:30am 17.7 WNW 4 5 - - 0.0 - - - - - - -
21/02:00am 18.1 NW 5 6 - - 0.0 - - - - - - -
21/01:30am 18.0 WNW 4 5 - - 0.0 - - - - - - -
21/01:00am 18.3 WNW 4 5 - - 0.0 - - - - - - -
21/12:30am 18.3 NW 5 6 - - 0.0 - - - - - - -
21/12:00am 17.9 W 2 3 - - 0.0 - - - - - - -
 
Date/Time
EDT
Temp

°C
Wind Pressure Rain
since 9am
mm
Weather Cloud Vis
km
Sea
Height
m
Swell
Dir
 
Speed
knots
Gust
knots
hPa Trend Height
m
Period
s
Dir
20/11:30pm 17.7 NNW 2 3 - - 0.0 - - - - - - -
20/11:00pm 17.4 CALM 0 0 - - 0.0 - - - - - - -
20/10:30pm 17.9 CALM 0 1 - - 0.0 - - - - - - -
20/10:00pm 18.9 NNE 4 6 - - 0.0 - - - - - - -
20/09:30pm 18.8 NNE 4 7 - - 0.0 - - - - - - -
20/09:00pm 18.9 NNE 4 5 - - 0.0 - - - - - - -
20/08:30pm 18.9 NNE 4 7 - - 0.0 - - - - - - -
20/08:00pm 19.1 N 6 8 - - 0.0 - - - - - - -
20/07:30pm 19.6 NNE 7 9 - - 0.0 - - - - - - -
20/07:00pm 19.9 NNE 8 10 - - 0.0 - - - - - - -
20/06:30pm 20.2 NNE 8 11 - - 0.0 - - - - - - -
20/06:00pm 20.6 NNE 7 10 - - 0.0 - - - - - - -
20/05:30pm 20.9 NNE 8 11 - - 0.0 - - - - - - -
20/05:00pm 21.3 NNE 7 9 - - 0.0 - - - - - - -
20/04:30pm 21.2 NE 7 9 - - 0.0 - - - - - - -
20/04:00pm 21.2 NE 8 10 - - 0.0 - - - - - - -
20/03:30pm 21.1 NE 7 10 - - 0.0 - - - - - - -
20/03:00pm 21.9 ENE 6 10 - - 0.0 - - - - - - -
20/02:30pm 21.8 NE 6 8 - - 0.0 - - - - - - -
20/02:00pm 21.5 ENE 5 9 - - 0.0 - - - - - - -
20/01:30pm 21.4 ENE 6 9 - - 0.0 - - - - - - -
20/01:00pm 21.3 ENE 6 9 - - 0.0 - - - - - - -
20/12:30pm 21.2 ENE 7 9 - - 0.0 - - - - - - -
20/12:00pm 21.3 E 6 8 - - 0.0 - - - - - - -
20/11:30am 21.2 ENE 5 7 - - 0.0 - - - - - - -
20/11:00am 20.7 ENE 4 6 - - 0.0 - - - - - - -
20/10:30am 19.6 E 4 6 - - 0.0 - - - - - - -
20/10:00am 19.3 E 3 5 - - 0.0 - - - - - - -
20/09:30am 19.9 SE 4 5 - - 0.0 - - - - - - -
20/09:00am 18.9 SSE 5 5 - - 0.0 - - - - - - -
20/08:30am 18.7 SSE 4 6 - - 0.0 - - - - - - -
20/08:00am 18.7 CALM 0 1 - - 0.0 - - - - - - -
20/07:30am 18.1 CALM 0 1 - - 0.0 - - - - - - -
20/07:00am 16.7 CALM 0 0 - - 0.0 - - - - - - -
20/06:30am 15.8 W 1 2 - - 0.0 - - - - - - -
20/06:00am 15.6 W 2 4 - - 0.0 - - - - - - -
20/05:30am 15.8 CALM 0 0 - - 0.0 - - - - - - -
20/05:00am 16.1 SW 2 3 - - 0.0 - - - - - - -
20/04:30am 16.8 SSW 7 8 - - 0.0 - - - - - - -
20/04:00am 16.7 SW 3 4 - - 0.0 - - - - - - -
20/03:30am 16.7 SW 4 5 - - 0.0 - - - - - - -
20/03:00am 16.8 SW 3 4 - - 0.0 - - - - - - -
20/02:30am 17.2 SSW 4 5 - - 0.0 - - - - - - -
20/02:00am 17.5 SSE 5 8 - - 0.0 - - - - - - -
20/01:30am 17.2 SSW 3 5 - - 0.0 - - - - - - -
20/01:00am 17.0 SSW 6 7 - - 0.0 - - - - - - -
20/12:30am 16.9 SSW 8 10 - - 0.0 - - - - - - -
20/12:00am 17.4 SSW 10 13 - - 0.0 - - - - - - -
 
Date/Time
EDT
Temp

°C
Wind Pressure Rain
since 9am
mm
Weather Cloud Vis
km
Sea
Height
m
Swell
Dir
 
Speed
knots
Gust
knots
hPa Trend Height
m
Period
s
Dir
19/11:30pm 18.4 S 7 12 - - 0.0 - - - - - - -
19/11:00pm 18.3 SE 10 13 - - 0.0 - - - - - - -
19/10:30pm 18.5 SSE 12 14 - - 0.0 - - - - - - -
19/10:00pm 18.6 SSE 13 16 - - 0.0 - - - - - - -
19/09:30pm 18.6 SSE 11 14 - - 0.0 - - - - - - -
19/09:00pm 18.6 SSE 14 16 - - 0.0 - - - - - - -
19/08:30pm 18.7 SSE 12 15 - - 0.0 - - - - - - -
19/08:00pm 18.6 SSE 14 17 - - 0.0 - - - - - - -
19/07:30pm 18.6 SSE 13 17 - - 0.0 - - - - - - -
19/07:00pm 18.7 SSE 14 17 - - 0.0 - - - - - - -
19/06:30pm 18.8 SSE 13 15 - - 0.0 - - - - - - -
19/06:00pm 18.9 SSE 11 13 - - 0.0 - - - - - - -
19/05:30pm 18.9 SSE 12 15 - - 0.0 - - - - - - -
19/05:00pm 19.0 SSE 10 13 - - 0.0 - - - - - - -
19/04:30pm 18.9 SE 11 14 - - 0.0 - - - - - - -
19/04:00pm 18.8 SSE 11 14 - - 0.0 - - - - - - -
19/03:30pm 18.9 SSE 13 15 - - 0.0 - - - - - - -
19/03:00pm 19.0 SSE 13 15 - - 0.0 - - - - - - -
19/02:30pm 18.9 SSE 13 15 - - 0.0 - - - - - - -
19/02:00pm 19.1 SSE 14 17 - - 0.0 - - - - - - -
19/01:30pm 19.3 SSE 15 19 - - 0.0 - - - - - - -
19/01:00pm 19.3 SSE 15 19 - - 0.0 - - - - - - -
19/12:30pm 18.9 SSE 17 21 - - 0.0 - - - - - - -
19/12:00pm 18.6 SSE 17 20 - - 0.0 - - - - - - -
19/11:30am 19.0 S 16 19 - - 0.0 - - - - - - -
19/11:00am 18.5 S 17 21 - - 0.0 - - - - - - -
19/10:30am 18.6 S 15 23 - - 0.0 - - - - - - -
19/10:00am 18.6 S 15 20 - - 0.0 - - - - - - -
19/09:30am 18.7 S 14 18 - - 0.0 - - - - - - -
19/09:00am 18.8 S 15 19 - - 0.0 - - - - - - -
19/08:30am 19.1 S 14 20 - - 0.0 - - - - - - -
19/08:00am 18.6 SSW 11 15 - - 0.0 - - - - - - -
19/07:30am 18.5 S 12 18 - - 0.0 - - - - - - -
19/07:00am 18.0 S 11 15 - - 0.0 - - - - - - -
19/06:30am 17.5 S 10 13 - - 0.0 - - - - - - -
19/06:00am 17.5 SSW 12 16 - - 0.0 - - - - - - -
19/05:30am 17.4 SSW 12 15 - - 0.0 - - - - - - -
19/05:00am 17.7 SSW 15 20 - - 0.0 - - - - - - -
19/04:30am 17.7 SSW 17 22 - - 0.0 - - - - - - -
19/04:01am 17.8 S 21 31 - - 0.0 - - - - - - -
19/04:00am 17.9 S 22 31 - - 0.0 - - - - - - -
19/03:30am 18.3 SSW 23 32 - - 0.0 - - - - - - -
19/03:00am 18.6 SSW 27 39 - - 0.0 - - - - - - -
19/02:56am 18.6 SSW 29 39 - - 0.0 - - - - - - -
19/02:49am 18.7 SSW 30 38 - - 0.0 - - - - - - -
19/02:30am 20.3 WSW 15 32 - - 0.0 - - - - - - -
19/02:27am 20.1 W 10 32 - - 0.0 - - - - - - -
19/02:00am 19.3 W 7 9 - - 0.0 - - - - - - -
19/01:30am 19.1 W 6 8 - - 0.0 - - - - - - -
19/01:00am 20.6 NW 8 10 - - 0.0 - - - - - - -
19/12:30am 19.8 WNW 4 6 - - 0.0 - - - - - - -
19/12:00am 19.8 WNW 5 6 - - 0.0 - - - - - - -
 
Date/Time
EDT
Temp

°C
Wind Pressure Rain
since 9am
mm
Weather Cloud Vis
km
Sea
Height
m
Swell
Dir
 
Speed
knots
Gust
knots
hPa Trend Height
m
Period
s
Dir
18/11:30pm 19.5 CALM 0 0 - - 0.0 - - - - - - -
18/11:00pm 20.3 WNW 2 4 - - 0.0 - - - - - - -
18/10:30pm 20.6 NW 4 6 - - 0.0 - - - - - - -
18/10:00pm 20.4 NNW 2 3 - - 0.0 - - - - - - -
18/09:30pm 20.7 N 3 5 - - 0.0 - - - - - - -
18/09:00pm 21.3 N 5 8 - - 0.0 - - - - - - -
18/08:30pm 21.5 N 4 8 - - 0.0 - - - - - - -
18/08:00pm 21.6 N 4 7 - - 0.0 - - - - - - -
18/07:30pm 21.7 N 6 9 - - 0.0 - - - - - - -
18/07:00pm 21.9 N 7 10 - - 0.0 - - - - - - -
18/06:30pm 22.1 N 7 9 - - 0.0 - - - - - - -
18/06:00pm 22.3 N 7 9 - - 0.0 - - - - - - -
18/05:30pm 22.4 N 5 7 - - 0.0 - - - - - - -
18/05:00pm 22.5 N 6 8 - - 0.0 - - - - - - -
18/04:30pm 22.3 NNE 10 13 - - 0.0 - - - - - - -
18/04:00pm 22.1 NNE 9 13 - - 0.0 - - - - - - -
18/03:30pm 22.6 NNE 9 13 - - 0.0 - - - - - - -
18/03:00pm 22.5 NNE 10 13 - - 0.0 - - - - - - -
18/02:30pm 22.6 NNE 10 13 - - 0.0 - - - - - - -
18/02:00pm 23.1 NNE 9 13 - - 0.0 - - - - - - -
18/01:30pm 22.8 NE 9 11 - - 0.0 - - - - - - -
18/01:00pm 22.5 NE 10 12 - - 0.0 - - - - - - -
18/12:30pm 22.5 NNE 9 13 - - 0.0 - - - - - - -
18/12:00pm 22.4 NNE 9 12 - - 0.0 - - - - - - -
18/11:30am 21.8 NNE 9 13 - - 0.0 - - - - - - -
18/11:00am 22.0 NNE 9 11 - - 0.0 - - - - - - -
18/10:30am 21.9 NNE 6 10 - - 0.0 - - - - - - -
18/10:00am 20.9 NNE 9 12 - - 0.0 - - - - - - -
18/09:30am 20.7 NNE 9 12 - - 0.0 - - - - - - -
18/09:00am 20.0 N 9 13 - - 0.0 - - - - - - -
18/08:30am 20.3 N 6 9 - - 0.0 - - - - - - -
18/08:00am 19.1 NNW 7 9 - - 0.0 - - - - - - -
18/07:30am 18.3 NW 3 8 - - 0.0 - - - - - - -
18/07:00am 17.8 CALM 0 3 - - 0.0 - - - - - - -
18/06:30am 17.4 NNW 3 4 - - 0.0 - - - - - - -
18/06:00am 17.0 NNW 1 3 - - 0.0 - - - - - - -

Other Formats:

Comma delimited format used in spreadsheet applications
http://www.bom.gov.au/fwo/IDN60701/IDN60701.95749.axf

JavaScript Object Notation format (JSON) in row-major order
http://www.bom.gov.au/fwo/IDN60701/IDN60701.95749.json